sensor_id;sensor_type;location;lat;lon;timestamp;temperature;humidity
9939;DHT22;5008;50.656;7.188;2023-11-19T00:01:01;10.80;99.90
9939;DHT22;5008;50.656;7.188;2023-11-19T00:03:31;10.80;99.90
9939;DHT22;5008;50.656;7.188;2023-11-19T00:05:59;10.80;99.90
9939;DHT22;5008;50.656;7.188;2023-11-19T00:08:25;10.80;99.90
9939;DHT22;5008;50.656;7.188;2023-11-19T00:10:54;10.80;99.90
9939;DHT22;5008;50.656;7.188;2023-11-19T00:13:20;10.80;99.90
9939;DHT22;5008;50.656;7.188;2023-11-19T00:15:48;10.80;99.90
9939;DHT22;5008;50.656;7.188;2023-11-19T00:18:15;10.80;99.90
9939;DHT22;5008;50.656;7.188;2023-11-19T00:20:42;10.90;99.90
9939;DHT22;5008;50.656;7.188;2023-11-19T00:23:10;11.00;99.90
9939;DHT22;5008;50.656;7.188;2023-11-19T00:25:37;11.00;99.90
9939;DHT22;5008;50.656;7.188;2023-11-19T00:28:05;11.00;99.90
9939;DHT22;5008;50.656;7.188;2023-11-19T00:30:32;10.90;99.90
9939;DHT22;5008;50.656;7.188;2023-11-19T00:32:59;10.80;99.90
9939;DHT22;5008;50.656;7.188;2023-11-19T00:35:26;10.80;99.90
9939;DHT22;5008;50.656;7.188;2023-11-19T00:37:52;10.80;99.90
9939;DHT22;5008;50.656;7.188;2023-11-19T00:40:19;10.70;99.90
9939;DHT22;5008;50.656;7.188;2023-11-19T00:42:48;10.70;99.90
9939;DHT22;5008;50.656;7.188;2023-11-19T00:45:16;10.70;99.90
9939;DHT22;5008;50.656;7.188;2023-11-19T00:47:43;10.60;99.90
9939;DHT22;5008;50.656;7.188;2023-11-19T00:50:10;10.60;99.90
9939;DHT22;5008;50.656;7.188;2023-11-19T00:52:38;10.50;99.90
9939;DHT22;5008;50.656;7.188;2023-11-19T00:55:06;10.50;99.90
9939;DHT22;5008;50.656;7.188;2023-11-19T00:57:33;10.50;99.90
9939;DHT22;5008;50.656;7.188;2023-11-19T01:00:00;10.40;99.90
9939;DHT22;5008;50.656;7.188;2023-11-19T01:02:29;10.40;99.90
9939;DHT22;5008;50.656;7.188;2023-11-19T01:04:56;10.50;99.90
9939;DHT22;5008;50.656;7.188;2023-11-19T01:07:23;10.60;99.90
9939;DHT22;5008;50.656;7.188;2023-11-19T01:09:52;10.70;99.90
9939;DHT22;5008;50.656;7.188;2023-11-19T01:12:19;10.80;99.90
9939;DHT22;5008;50.656;7.188;2023-11-19T01:14:46;10.80;99.90
9939;DHT22;5008;50.656;7.188;2023-11-19T01:17:13;10.80;99.90
9939;DHT22;5008;50.656;7.188;2023-11-19T01:19:41;10.90;99.90
9939;DHT22;5008;50.656;7.188;2023-11-19T01:22:07;10.90;99.90
9939;DHT22;5008;50.656;7.188;2023-11-19T01:24:34;10.80;99.90
9939;DHT22;5008;50.656;7.188;2023-11-19T01:27:01;10.80;99.90
9939;DHT22;5008;50.656;7.188;2023-11-19T01:29:28;10.80;99.90
9939;DHT22;5008;50.656;7.188;2023-11-19T01:31:54;10.80;99.90
9939;DHT22;5008;50.656;7.188;2023-11-19T01:34:21;10.70;99.90
9939;DHT22;5008;50.656;7.188;2023-11-19T01:36:49;10.70;99.90
9939;DHT22;5008;50.656;7.188;2023-11-19T01:39:16;10.60;99.90
9939;DHT22;5008;50.656;7.188;2023-11-19T01:41:43;10.60;99.90
9939;DHT22;5008;50.656;7.188;2023-11-19T01:44:10;10.60;99.90
9939;DHT22;5008;50.656;7.188;2023-11-19T01:46:40;10.60;99.90
9939;DHT22;5008;50.656;7.188;2023-11-19T01:49:07;10.50;99.90
9939;DHT22;5008;50.656;7.188;2023-11-19T01:51:35;10.50;99.90
9939;DHT22;5008;50.656;7.188;2023-11-19T01:54:04;10.60;99.90
9939;DHT22;5008;50.656;7.188;2023-11-19T01:56:32;10.60;99.90
9939;DHT22;5008;50.656;7.188;2023-11-19T01:58:59;10.60;99.90
9939;DHT22;5008;50.656;7.188;2023-11-19T02:01:26;10.60;99.90
9939;DHT22;5008;50.656;7.188;2023-11-19T02:03:55;10.70;99.90
9939;DHT22;5008;50.656;7.188;2023-11-19T02:06:24;10.70;99.90
9939;DHT22;5008;50.656;7.188;2023-11-19T02:08:52;10.60;99.90
9939;DHT22;5008;50.656;7.188;2023-11-19T02:11:20;10.60;99.90
9939;DHT22;5008;50.656;7.188;2023-11-19T02:13:47;10.60;99.90
9939;DHT22;5008;50.656;7.188;2023-11-19T02:16:14;10.60;99.90
9939;DHT22;5008;50.656;7.188;2023-11-19T02:18:40;10.60;99.90
9939;DHT22;5008;50.656;7.188;2023-11-19T02:21:08;10.60;99.90
9939;DHT22;5008;50.656;7.188;2023-11-19T02:23:36;10.50;99.90
9939;DHT22;5008;50.656;7.188;2023-11-19T02:26:09;10.50;99.90
9939;DHT22;5008;50.656;7.188;2023-11-19T02:28:38;10.50;99.90
9939;DHT22;5008;50.656;7.188;2023-11-19T02:31:05;10.60;99.90
9939;DHT22;5008;50.656;7.188;2023-11-19T02:33:35;10.70;99.90
9939;DHT22;5008;50.656;7.188;2023-11-19T02:36:02;10.60;99.90
9939;DHT22;5008;50.656;7.188;2023-11-19T02:38:29;10.60;99.90
9939;DHT22;5008;50.656;7.188;2023-11-19T02:40:56;10.60;99.90
9939;DHT22;5008;50.656;7.188;2023-11-19T02:43:23;10.50;99.90
9939;DHT22;5008;50.656;7.188;2023-11-19T02:45:51;10.50;99.90
9939;DHT22;5008;50.656;7.188;2023-11-19T02:48:21;10.50;99.90
9939;DHT22;5008;50.656;7.188;2023-11-19T02:50:48;10.40;99.90
9939;DHT22;5008;50.656;7.188;2023-11-19T02:53:15;10.40;99.90
9939;DHT22;5008;50.656;7.188;2023-11-19T02:55:42;10.40;99.90
9939;DHT22;5008;50.656;7.188;2023-11-19T02:58:14;10.40;99.90
9939;DHT22;5008;50.656;7.188;2023-11-19T03:00:50;10.30;99.90
9939;DHT22;5008;50.656;7.188;2023-11-19T03:03:23;10.30;99.90
9939;DHT22;5008;50.656;7.188;2023-11-19T03:05:54;10.30;99.90
9939;DHT22;5008;50.656;7.188;2023-11-19T03:08:21;10.20;99.90
9939;DHT22;5008;50.656;7.188;2023-11-19T03:10:48;10.20;99.90
9939;DHT22;5008;50.656;7.188;2023-11-19T03:13:15;10.20;99.90
9939;DHT22;5008;50.656;7.188;2023-11-19T03:15:42;10.20;99.90
9939;DHT22;5008;50.656;7.188;2023-11-19T03:18:11;10.30;99.90
9939;DHT22;5008;50.656;7.188;2023-11-19T03:20:37;10.30;99.90
9939;DHT22;5008;50.656;7.188;2023-11-19T03:23:04;10.30;99.90
9939;DHT22;5008;50.656;7.188;2023-11-19T03:25:31;10.30;99.90
9939;DHT22;5008;50.656;7.188;2023-11-19T03:28:00;10.30;99.90
9939;DHT22;5008;50.656;7.188;2023-11-19T03:30:28;10.30;99.90
9939;DHT22;5008;50.656;7.188;2023-11-19T03:32:55;10.30;99.90
9939;DHT22;5008;50.656;7.188;2023-11-19T03:35:23;10.30;99.90
9939;DHT22;5008;50.656;7.188;2023-11-19T03:37:51;10.30;99.90
9939;DHT22;5008;50.656;7.188;2023-11-19T03:40:18;10.20;99.90
9939;DHT22;5008;50.656;7.188;2023-11-19T03:42:45;10.10;99.90
9939;DHT22;5008;50.656;7.188;2023-11-19T03:45:12;10.10;99.90
9939;DHT22;5008;50.656;7.188;2023-11-19T03:47:40;10.00;99.90
9939;DHT22;5008;50.656;7.188;2023-11-19T03:50:07;10.10;99.90
9939;DHT22;5008;50.656;7.188;2023-11-19T03:52:36;10.10;99.90
9939;DHT22;5008;50.656;7.188;2023-11-19T03:55:04;10.10;99.90
9939;DHT22;5008;50.656;7.188;2023-11-19T03:57:31;10.10;99.90
9939;DHT22;5008;50.656;7.188;2023-11-19T03:59:58;10.00;99.90
9939;DHT22;5008;50.656;7.188;2023-11-19T04:02:25;10.10;99.90
9939;DHT22;5008;50.656;7.188;2023-11-19T04:04:53;10.00;99.90
9939;DHT22;5008;50.656;7.188;2023-11-19T04:07:20;10.00;99.90
9939;DHT22;5008;50.656;7.188;2023-11-19T04:09:49;10.00;99.90
9939;DHT22;5008;50.656;7.188;2023-11-19T04:12:16;10.10;99.90
9939;DHT22;5008;50.656;7.188;2023-11-19T04:14:43;10.00;99.90
9939;DHT22;5008;50.656;7.188;2023-11-19T04:17:10;10.00;99.90
9939;DHT22;5008;50.656;7.188;2023-11-19T04:19:37;9.90;99.90
9939;DHT22;5008;50.656;7.188;2023-11-19T04:22:07;9.90;99.90
9939;DHT22;5008;50.656;7.188;2023-11-19T04:24:33;9.90;99.90
9939;DHT22;5008;50.656;7.188;2023-11-19T04:27:01;10.00;99.90
9939;DHT22;5008;50.656;7.188;2023-11-19T04:29:30;10.10;99.90
9939;DHT22;5008;50.656;7.188;2023-11-19T04:31:57;10.10;99.90
9939;DHT22;5008;50.656;7.188;2023-11-19T04:34:24;10.20;99.90
9939;DHT22;5008;50.656;7.188;2023-11-19T04:36:51;10.20;99.90
9939;DHT22;5008;50.656;7.188;2023-11-19T04:39:18;10.20;99.90
9939;DHT22;5008;50.656;7.188;2023-11-19T04:41:49;10.10;99.90
9939;DHT22;5008;50.656;7.188;2023-11-19T04:44:18;10.00;99.90
9939;DHT22;5008;50.656;7.188;2023-11-19T04:46:45;10.00;99.90
9939;DHT22;5008;50.656;7.188;2023-11-19T04:49:13;10.00;99.90
9939;DHT22;5008;50.656;7.188;2023-11-19T04:51:40;10.10;99.90
9939;DHT22;5008;50.656;7.188;2023-11-19T04:54:08;10.00;99.90
9939;DHT22;5008;50.656;7.188;2023-11-19T04:56:35;10.10;99.90
9939;DHT22;5008;50.656;7.188;2023-11-19T04:59:02;10.00;99.90
9939;DHT22;5008;50.656;7.188;2023-11-19T05:01:32;10.00;99.90
9939;DHT22;5008;50.656;7.188;2023-11-19T05:03:59;10.00;99.90
9939;DHT22;5008;50.656;7.188;2023-11-19T05:06:27;9.90;99.90
9939;DHT22;5008;50.656;7.188;2023-11-19T05:08:54;9.90;99.90
9939;DHT22;5008;50.656;7.188;2023-11-19T05:11:21;9.80;99.90
9939;DHT22;5008;50.656;7.188;2023-11-19T05:13:48;9.80;99.90
9939;DHT22;5008;50.656;7.188;2023-11-19T05:16:15;9.80;99.90
9939;DHT22;5008;50.656;7.188;2023-11-19T05:18:44;9.70;99.90
9939;DHT22;5008;50.656;7.188;2023-11-19T05:21:11;9.70;99.90
9939;DHT22;5008;50.656;7.188;2023-11-19T05:23:38;9.70;99.90
9939;DHT22;5008;50.656;7.188;2023-11-19T05:26:06;9.70;99.90
9939;DHT22;5008;50.656;7.188;2023-11-19T05:28:32;9.70;99.90
9939;DHT22;5008;50.656;7.188;2023-11-19T05:31:00;9.60;99.90
9939;DHT22;5008;50.656;7.188;2023-11-19T05:33:26;9.60;99.90
9939;DHT22;5008;50.656;7.188;2023-11-19T05:35:55;9.50;99.90
9939;DHT22;5008;50.656;7.188;2023-11-19T05:38:22;9.50;99.90
9939;DHT22;5008;50.656;7.188;2023-11-19T05:40:49;9.50;99.90
9939;DHT22;5008;50.656;7.188;2023-11-19T05:43:16;9.50;99.90
9939;DHT22;5008;50.656;7.188;2023-11-19T05:45:43;9.40;99.90
9939;DHT22;5008;50.656;7.188;2023-11-19T05:48:10;9.50;99.90
9939;DHT22;5008;50.656;7.188;2023-11-19T05:50:36;9.50;99.90
9939;DHT22;5008;50.656;7.188;2023-11-19T05:53:05;9.50;99.90
9939;DHT22;5008;50.656;7.188;2023-11-19T05:55:35;9.50;99.90
9939;DHT22;5008;50.656;7.188;2023-11-19T05:58:03;9.50;99.90
9939;DHT22;5008;50.656;7.188;2023-11-19T06:00:32;9.50;99.90
9939;DHT22;5008;50.656;7.188;2023-11-19T06:02:58;9.50;99.90
9939;DHT22;5008;50.656;7.188;2023-11-19T06:05:25;9.60;99.90
9939;DHT22;5008;50.656;7.188;2023-11-19T06:07:52;9.60;99.90
9939;DHT22;5008;50.656;7.188;2023-11-19T06:10:20;9.60;99.90
9939;DHT22;5008;50.656;7.188;2023-11-19T06:12:51;9.60;99.90
9939;DHT22;5008;50.656;7.188;2023-11-19T06:15:21;9.60;99.90
9939;DHT22;5008;50.656;7.188;2023-11-19T06:17:48;9.70;99.90
9939;DHT22;5008;50.656;7.188;2023-11-19T06:20:15;9.70;99.90
9939;DHT22;5008;50.656;7.188;2023-11-19T06:22:42;9.60;99.90
9939;DHT22;5008;50.656;7.188;2023-11-19T06:25:11;9.50;99.90
9939;DHT22;5008;50.656;7.188;2023-11-19T06:27:41;9.50;99.90
9939;DHT22;5008;50.656;7.188;2023-11-19T06:30:09;9.40;99.90
9939;DHT22;5008;50.656;7.188;2023-11-19T06:32:36;9.30;99.90
9939;DHT22;5008;50.656;7.188;2023-11-19T06:35:04;9.20;99.90
9939;DHT22;5008;50.656;7.188;2023-11-19T06:37:31;9.20;99.90
9939;DHT22;5008;50.656;7.188;2023-11-19T06:39:57;9.30;99.90
9939;DHT22;5008;50.656;7.188;2023-11-19T06:42:24;9.40;99.90
9939;DHT22;5008;50.656;7.188;2023-11-19T06:44:53;9.50;99.90
9939;DHT22;5008;50.656;7.188;2023-11-19T06:47:50;9.50;99.90
9939;DHT22;5008;50.656;7.188;2023-11-19T06:50:17;9.60;99.90
9939;DHT22;5008;50.656;7.188;2023-11-19T06:52:44;9.60;99.90
9939;DHT22;5008;50.656;7.188;2023-11-19T06:55:13;9.60;99.90
9939;DHT22;5008;50.656;7.188;2023-11-19T06:57:44;9.70;99.90
9939;DHT22;5008;50.656;7.188;2023-11-19T07:00:12;9.70;99.90
9939;DHT22;5008;50.656;7.188;2023-11-19T07:02:40;9.70;99.90
9939;DHT22;5008;50.656;7.188;2023-11-19T07:05:07;9.80;99.90
9939;DHT22;5008;50.656;7.188;2023-11-19T07:07:34;9.70;99.90
9939;DHT22;5008;50.656;7.188;2023-11-19T07:10:02;10.10;99.90
9939;DHT22;5008;50.656;7.188;2023-11-19T07:12:30;10.20;99.90
9939;DHT22;5008;50.656;7.188;2023-11-19T07:14:56;10.20;99.90
9939;DHT22;5008;50.656;7.188;2023-11-19T07:17:24;10.30;99.90
9939;DHT22;5008;50.656;7.188;2023-11-19T07:19:52;10.40;99.90
9939;DHT22;5008;50.656;7.188;2023-11-19T07:22:20;10.30;99.90
9939;DHT22;5008;50.656;7.188;2023-11-19T07:24:46;10.20;99.90
9939;DHT22;5008;50.656;7.188;2023-11-19T07:27:13;10.20;99.90
9939;DHT22;5008;50.656;7.188;2023-11-19T07:29:43;10.30;99.90
9939;DHT22;5008;50.656;7.188;2023-11-19T07:32:10;10.30;99.90
9939;DHT22;5008;50.656;7.188;2023-11-19T07:34:38;10.30;99.90
9939;DHT22;5008;50.656;7.188;2023-11-19T07:37:05;10.30;99.90
9939;DHT22;5008;50.656;7.188;2023-11-19T07:39:32;10.20;99.90
9939;DHT22;5008;50.656;7.188;2023-11-19T07:42:00;10.20;99.90
9939;DHT22;5008;50.656;7.188;2023-11-19T07:44:27;10.20;99.90
9939;DHT22;5008;50.656;7.188;2023-11-19T07:46:54;10.20;99.90
9939;DHT22;5008;50.656;7.188;2023-11-19T07:49:21;10.20;99.90
9939;DHT22;5008;50.656;7.188;2023-11-19T07:51:49;10.20;99.90
9939;DHT22;5008;50.656;7.188;2023-11-19T07:54:16;10.20;99.90
9939;DHT22;5008;50.656;7.188;2023-11-19T07:56:42;10.20;99.90
9939;DHT22;5008;50.656;7.188;2023-11-19T07:59:09;10.20;99.90
9939;DHT22;5008;50.656;7.188;2023-11-19T08:01:36;10.20;99.90
9939;DHT22;5008;50.656;7.188;2023-11-19T08:04:04;10.30;99.90
9939;DHT22;5008;50.656;7.188;2023-11-19T08:06:30;10.20;99.90
9939;DHT22;5008;50.656;7.188;2023-11-19T08:08:59;10.20;99.90
9939;DHT22;5008;50.656;7.188;2023-11-19T08:11:26;10.20;99.90
9939;DHT22;5008;50.656;7.188;2023-11-19T08:13:53;10.30;99.90
9939;DHT22;5008;50.656;7.188;2023-11-19T08:16:19;10.40;99.90
9939;DHT22;5008;50.656;7.188;2023-11-19T08:18:46;10.60;99.90
9939;DHT22;5008;50.656;7.188;2023-11-19T08:21:13;11.00;99.90
9939;DHT22;5008;50.656;7.188;2023-11-19T08:23:40;11.20;99.90
9939;DHT22;5008;50.656;7.188;2023-11-19T08:26:08;11.50;99.90
9939;DHT22;5008;50.656;7.188;2023-11-19T08:28:35;11.80;99.90
9939;DHT22;5008;50.656;7.188;2023-11-19T08:31:02;11.80;99.90
9939;DHT22;5008;50.656;7.188;2023-11-19T08:33:30;11.90;99.90
9939;DHT22;5008;50.656;7.188;2023-11-19T08:35:56;12.00;99.90
9939;DHT22;5008;50.656;7.188;2023-11-19T08:38:24;12.10;99.90
9939;DHT22;5008;50.656;7.188;2023-11-19T08:40:50;12.10;99.90
9939;DHT22;5008;50.656;7.188;2023-11-19T08:43:18;12.10;99.90
9939;DHT22;5008;50.656;7.188;2023-11-19T08:45:46;12.20;99.90
9939;DHT22;5008;50.656;7.188;2023-11-19T08:48:13;12.40;99.90
9939;DHT22;5008;50.656;7.188;2023-11-19T08:50:40;12.40;99.90
9939;DHT22;5008;50.656;7.188;2023-11-19T08:53:07;12.40;99.90
9939;DHT22;5008;50.656;7.188;2023-11-19T08:55:33;12.30;99.90
9939;DHT22;5008;50.656;7.188;2023-11-19T08:58:00;12.30;99.90
9939;DHT22;5008;50.656;7.188;2023-11-19T09:00:29;12.30;99.90
9939;DHT22;5008;50.656;7.188;2023-11-19T09:02:58;12.30;99.90
9939;DHT22;5008;50.656;7.188;2023-11-19T09:05:24;12.50;99.90
9939;DHT22;5008;50.656;7.188;2023-11-19T09:07:51;12.60;99.90
9939;DHT22;5008;50.656;7.188;2023-11-19T09:10:18;12.70;99.90
9939;DHT22;5008;50.656;7.188;2023-11-19T09:12:45;12.80;99.90
9939;DHT22;5008;50.656;7.188;2023-11-19T09:15:12;12.80;99.90
9939;DHT22;5008;50.656;7.188;2023-11-19T09:17:40;12.80;99.90
9939;DHT22;5008;50.656;7.188;2023-11-19T09:20:08;12.80;99.90
9939;DHT22;5008;50.656;7.188;2023-11-19T09:22:37;12.90;99.90
9939;DHT22;5008;50.656;7.188;2023-11-19T09:25:05;13.00;99.90
9939;DHT22;5008;50.656;7.188;2023-11-19T09:27:31;13.00;99.90
9939;DHT22;5008;50.656;7.188;2023-11-19T09:29:58;13.00;99.90
9939;DHT22;5008;50.656;7.188;2023-11-19T09:32:26;13.00;99.90
9939;DHT22;5008;50.656;7.188;2023-11-19T09:34:54;13.00;99.90
9939;DHT22;5008;50.656;7.188;2023-11-19T09:37:21;13.00;99.90
9939;DHT22;5008;50.656;7.188;2023-11-19T09:39:48;12.90;99.90
9939;DHT22;5008;50.656;7.188;2023-11-19T09:42:15;12.90;99.90
9939;DHT22;5008;50.656;7.188;2023-11-19T09:44:43;12.90;99.90
9939;DHT22;5008;50.656;7.188;2023-11-19T09:47:11;12.90;99.90
9939;DHT22;5008;50.656;7.188;2023-11-19T09:49:40;13.00;99.90
9939;DHT22;5008;50.656;7.188;2023-11-19T09:52:09;13.20;99.90
9939;DHT22;5008;50.656;7.188;2023-11-19T09:54:36;13.10;99.90
9939;DHT22;5008;50.656;7.188;2023-11-19T09:57:04;13.10;99.90
9939;DHT22;5008;50.656;7.188;2023-11-19T09:59:33;13.00;99.90
9939;DHT22;5008;50.656;7.188;2023-11-19T10:02:00;13.10;99.90
9939;DHT22;5008;50.656;7.188;2023-11-19T10:04:30;13.30;99.90
9939;DHT22;5008;50.656;7.188;2023-11-19T10:06:57;13.30;99.90
9939;DHT22;5008;50.656;7.188;2023-11-19T10:09:25;13.40;99.90
9939;DHT22;5008;50.656;7.188;2023-11-19T10:11:52;13.40;99.90
9939;DHT22;5008;50.656;7.188;2023-11-19T10:14:23;13.60;99.90
9939;DHT22;5008;50.656;7.188;2023-11-19T10:16:50;13.60;99.90
9939;DHT22;5008;50.656;7.188;2023-11-19T10:19:19;13.60;99.90
9939;DHT22;5008;50.656;7.188;2023-11-19T10:21:46;13.80;99.90
9939;DHT22;5008;50.656;7.188;2023-11-19T10:24:13;13.90;99.90
9939;DHT22;5008;50.656;7.188;2023-11-19T10:26:42;13.90;99.90
9939;DHT22;5008;50.656;7.188;2023-11-19T10:29:08;13.90;99.90
9939;DHT22;5008;50.656;7.188;2023-11-19T10:31:39;14.00;99.90
9939;DHT22;5008;50.656;7.188;2023-11-19T10:34:24;14.00;99.90
9939;DHT22;5008;50.656;7.188;2023-11-19T10:36:51;14.10;99.90
9939;DHT22;5008;50.656;7.188;2023-11-19T10:39:18;14.20;99.90
9939;DHT22;5008;50.656;7.188;2023-11-19T10:41:47;14.20;99.90
9939;DHT22;5008;50.656;7.188;2023-11-19T10:44:31;14.30;99.90
9939;DHT22;5008;50.656;7.188;2023-11-19T10:47:01;14.30;99.90
9939;DHT22;5008;50.656;7.188;2023-11-19T10:49:28;14.40;99.90
9939;DHT22;5008;50.656;7.188;2023-11-19T10:51:55;14.40;99.90
9939;DHT22;5008;50.656;7.188;2023-11-19T10:54:24;14.50;99.90
9939;DHT22;5008;50.656;7.188;2023-11-19T10:56:55;14.50;99.90
9939;DHT22;5008;50.656;7.188;2023-11-19T10:59:25;14.60;99.90
9939;DHT22;5008;50.656;7.188;2023-11-19T11:01:56;14.60;99.90
9939;DHT22;5008;50.656;7.188;2023-11-19T11:04:24;14.60;99.90
9939;DHT22;5008;50.656;7.188;2023-11-19T11:06:54;14.70;99.90
9939;DHT22;5008;50.656;7.188;2023-11-19T11:09:21;14.70;99.90
9939;DHT22;5008;50.656;7.188;2023-11-19T11:11:50;14.60;99.90
9939;DHT22;5008;50.656;7.188;2023-11-19T11:14:20;14.60;99.90
9939;DHT22;5008;50.656;7.188;2023-11-19T11:16:48;14.70;99.90
9939;DHT22;5008;50.656;7.188;2023-11-19T11:19:16;14.70;99.90
9939;DHT22;5008;50.656;7.188;2023-11-19T11:21:47;14.70;99.90
9939;DHT22;5008;50.656;7.188;2023-11-19T11:30:29;14.40;99.90
9939;DHT22;5008;50.656;7.188;2023-11-19T11:33:20;14.40;99.90
9939;DHT22;5008;50.656;7.188;2023-11-19T11:35:58;14.40;99.90
9939;DHT22;5008;50.656;7.188;2023-11-19T11:38:29;14.50;99.90
9939;DHT22;5008;50.656;7.188;2023-11-19T11:41:15;14.40;99.90
9939;DHT22;5008;50.656;7.188;2023-11-19T11:43:45;14.50;99.90
9939;DHT22;5008;50.656;7.188;2023-11-19T11:49:29;14.30;99.90
9939;DHT22;5008;50.656;7.188;2023-11-19T11:52:00;14.20;99.90
9939;DHT22;5008;50.656;7.188;2023-11-19T11:54:27;14.10;99.90
9939;DHT22;5008;50.656;7.188;2023-11-19T11:57:03;14.10;99.90
9939;DHT22;5008;50.656;7.188;2023-11-19T11:59:42;14.10;99.90
9939;DHT22;5008;50.656;7.188;2023-11-19T12:02:10;14.10;99.90
9939;DHT22;5008;50.656;7.188;2023-11-19T12:04:39;14.10;99.90
9939;DHT22;5008;50.656;7.188;2023-11-19T12:07:06;13.90;99.90
9939;DHT22;5008;50.656;7.188;2023-11-19T12:09:36;13.80;99.90
9939;DHT22;5008;50.656;7.188;2023-11-19T12:12:18;13.70;99.90
9939;DHT22;5008;50.656;7.188;2023-11-19T12:15:03;13.80;99.90
9939;DHT22;5008;50.656;7.188;2023-11-19T12:17:46;13.80;99.90
9939;DHT22;5008;50.656;7.188;2023-11-19T12:20:18;13.80;99.90
9939;DHT22;5008;50.656;7.188;2023-11-19T12:22:46;13.70;99.90
9939;DHT22;5008;50.656;7.188;2023-11-19T12:25:15;13.70;99.90
9939;DHT22;5008;50.656;7.188;2023-11-19T12:27:44;13.80;99.90
9939;DHT22;5008;50.656;7.188;2023-11-19T12:30:12;13.80;99.90
9939;DHT22;5008;50.656;7.188;2023-11-19T12:32:40;13.80;99.90
9939;DHT22;5008;50.656;7.188;2023-11-19T12:35:08;14.00;99.90
9939;DHT22;5008;50.656;7.188;2023-11-19T12:37:42;13.90;99.90
9939;DHT22;5008;50.656;7.188;2023-11-19T12:40:14;13.90;99.90
9939;DHT22;5008;50.656;7.188;2023-11-19T12:42:41;13.90;99.90
9939;DHT22;5008;50.656;7.188;2023-11-19T12:45:08;13.90;99.90
9939;DHT22;5008;50.656;7.188;2023-11-19T12:47:36;13.90;99.90
9939;DHT22;5008;50.656;7.188;2023-11-19T12:50:04;13.80;99.90
9939;DHT22;5008;50.656;7.188;2023-11-19T12:52:32;13.90;99.90
9939;DHT22;5008;50.656;7.188;2023-11-19T12:55:00;13.90;99.90
9939;DHT22;5008;50.656;7.188;2023-11-19T12:57:40;13.80;99.90
9939;DHT22;5008;50.656;7.188;2023-11-19T13:00:18;13.80;99.90
9939;DHT22;5008;50.656;7.188;2023-11-19T13:02:47;13.60;99.90
9939;DHT22;5008;50.656;7.188;2023-11-19T13:05:25;13.50;99.90
9939;DHT22;5008;50.656;7.188;2023-11-19T13:07:58;13.30;99.90
9939;DHT22;5008;50.656;7.188;2023-11-19T13:10:27;13.00;99.90
9939;DHT22;5008;50.656;7.188;2023-11-19T13:13:04;12.80;99.90
9939;DHT22;5008;50.656;7.188;2023-11-19T13:15:31;12.60;99.90
9939;DHT22;5008;50.656;7.188;2023-11-19T13:17:58;12.50;99.90
9939;DHT22;5008;50.656;7.188;2023-11-19T13:20:25;12.40;99.90
9939;DHT22;5008;50.656;7.188;2023-11-19T13:22:56;12.30;99.90
9939;DHT22;5008;50.656;7.188;2023-11-19T13:25:23;12.40;99.90
9939;DHT22;5008;50.656;7.188;2023-11-19T13:27:52;12.30;99.90
9939;DHT22;5008;50.656;7.188;2023-11-19T13:30:19;12.20;99.90
9939;DHT22;5008;50.656;7.188;2023-11-19T13:32:47;12.40;99.90
9939;DHT22;5008;50.656;7.188;2023-11-19T13:35:14;12.50;99.90
9939;DHT22;5008;50.656;7.188;2023-11-19T13:37:43;12.70;99.90
9939;DHT22;5008;50.656;7.188;2023-11-19T13:40:10;13.00;99.90
9939;DHT22;5008;50.656;7.188;2023-11-19T13:42:39;13.10;99.90
9939;DHT22;5008;50.656;7.188;2023-11-19T13:45:10;13.10;99.90
9939;DHT22;5008;50.656;7.188;2023-11-19T13:47:41;12.90;99.90
9939;DHT22;5008;50.656;7.188;2023-11-19T13:50:09;13.00;99.90
9939;DHT22;5008;50.656;7.188;2023-11-19T13:52:36;12.90;99.90
9939;DHT22;5008;50.656;7.188;2023-11-19T13:55:06;12.90;99.90
9939;DHT22;5008;50.656;7.188;2023-11-19T13:57:33;13.10;99.90
9939;DHT22;5008;50.656;7.188;2023-11-19T14:00:01;13.20;99.90
9939;DHT22;5008;50.656;7.188;2023-11-19T14:02:30;13.30;99.90
9939;DHT22;5008;50.656;7.188;2023-11-19T14:04:56;13.40;99.90
9939;DHT22;5008;50.656;7.188;2023-11-19T14:07:23;13.50;99.90
9939;DHT22;5008;50.656;7.188;2023-11-19T14:09:50;13.40;99.90
9939;DHT22;5008;50.656;7.188;2023-11-19T14:12:17;13.40;99.90
9939;DHT22;5008;50.656;7.188;2023-11-19T14:14:44;13.40;99.90
9939;DHT22;5008;50.656;7.188;2023-11-19T14:17:10;13.30;99.90
9939;DHT22;5008;50.656;7.188;2023-11-19T14:19:39;13.30;99.90
9939;DHT22;5008;50.656;7.188;2023-11-19T14:22:06;13.30;99.90
9939;DHT22;5008;50.656;7.188;2023-11-19T14:24:34;13.20;99.90
9939;DHT22;5008;50.656;7.188;2023-11-19T14:27:00;13.20;99.90
9939;DHT22;5008;50.656;7.188;2023-11-19T14:29:27;13.10;99.90
9939;DHT22;5008;50.656;7.188;2023-11-19T14:31:55;13.10;99.90
9939;DHT22;5008;50.656;7.188;2023-11-19T14:34:22;13.20;99.90
9939;DHT22;5008;50.656;7.188;2023-11-19T14:36:51;13.10;99.90
9939;DHT22;5008;50.656;7.188;2023-11-19T14:39:19;13.00;99.90
9939;DHT22;5008;50.656;7.188;2023-11-19T14:41:46;13.00;99.90
9939;DHT22;5008;50.656;7.188;2023-11-19T14:44:13;13.10;99.90
9939;DHT22;5008;50.656;7.188;2023-11-19T14:46:39;13.20;99.90
9939;DHT22;5008;50.656;7.188;2023-11-19T14:49:06;13.10;99.90
9939;DHT22;5008;50.656;7.188;2023-11-19T14:51:35;13.10;99.90
9939;DHT22;5008;50.656;7.188;2023-11-19T14:54:04;13.00;99.90
9939;DHT22;5008;50.656;7.188;2023-11-19T14:56:30;12.90;99.90
9939;DHT22;5008;50.656;7.188;2023-11-19T14:58:57;13.00;99.90
9939;DHT22;5008;50.656;7.188;2023-11-19T15:01:25;12.90;99.90
9939;DHT22;5008;50.656;7.188;2023-11-19T15:03:54;13.00;99.90
9939;DHT22;5008;50.656;7.188;2023-11-19T15:06:23;13.10;99.90
9939;DHT22;5008;50.656;7.188;2023-11-19T15:08:50;13.00;99.90
9939;DHT22;5008;50.656;7.188;2023-11-19T15:11:18;13.10;99.90
9939;DHT22;5008;50.656;7.188;2023-11-19T15:13:45;13.10;99.90
9939;DHT22;5008;50.656;7.188;2023-11-19T15:16:12;13.10;99.90
9939;DHT22;5008;50.656;7.188;2023-11-19T15:18:40;13.00;99.90
9939;DHT22;5008;50.656;7.188;2023-11-19T15:21:07;13.00;99.90
9939;DHT22;5008;50.656;7.188;2023-11-19T15:23:34;12.90;99.90
9939;DHT22;5008;50.656;7.188;2023-11-19T15:26:02;12.80;99.90
9939;DHT22;5008;50.656;7.188;2023-11-19T15:28:31;12.60;99.90
9939;DHT22;5008;50.656;7.188;2023-11-19T15:30:57;12.60;99.90
9939;DHT22;5008;50.656;7.188;2023-11-19T15:33:24;12.60;99.90
9939;DHT22;5008;50.656;7.188;2023-11-19T15:35:51;12.60;99.90
9939;DHT22;5008;50.656;7.188;2023-11-19T15:38:18;12.70;99.90
9939;DHT22;5008;50.656;7.188;2023-11-19T15:40:44;12.60;99.90
9939;DHT22;5008;50.656;7.188;2023-11-19T15:43:11;12.70;99.90
9939;DHT22;5008;50.656;7.188;2023-11-19T15:45:39;12.70;99.90
9939;DHT22;5008;50.656;7.188;2023-11-19T15:48:06;12.60;99.90
9939;DHT22;5008;50.656;7.188;2023-11-19T15:50:33;12.70;99.90
9939;DHT22;5008;50.656;7.188;2023-11-19T15:53:00;12.80;99.90
9939;DHT22;5008;50.656;7.188;2023-11-19T15:55:27;12.70;99.90
9939;DHT22;5008;50.656;7.188;2023-11-19T15:57:54;12.70;99.90
9939;DHT22;5008;50.656;7.188;2023-11-19T16:00:21;12.60;99.90
9939;DHT22;5008;50.656;7.188;2023-11-19T16:02:49;12.70;99.90
9939;DHT22;5008;50.656;7.188;2023-11-19T16:05:16;12.80;99.90
9939;DHT22;5008;50.656;7.188;2023-11-19T16:07:43;12.60;99.90
9939;DHT22;5008;50.656;7.188;2023-11-19T16:10:10;12.60;99.90
9939;DHT22;5008;50.656;7.188;2023-11-19T16:12:38;12.50;99.90
9939;DHT22;5008;50.656;7.188;2023-11-19T16:15:06;12.50;99.90
9939;DHT22;5008;50.656;7.188;2023-11-19T16:17:34;12.40;99.90
9939;DHT22;5008;50.656;7.188;2023-11-19T16:20:03;12.50;99.90